sensor_id;sensor_type;location;lat;lon;timestamp;temperature;humidity
67820;DHT22;54618;52.018;5.576;2024-03-29T00:00:39;8.30;70.20
67820;DHT22;54618;52.018;5.576;2024-03-29T00:03:05;8.20;70.10
67820;DHT22;54618;52.018;5.576;2024-03-29T00:05:32;8.20;70.00
67820;DHT22;54618;52.018;5.576;2024-03-29T00:07:58;8.20;70.20
67820;DHT22;54618;52.018;5.576;2024-03-29T00:10:24;8.10;70.10
67820;DHT22;54618;52.018;5.576;2024-03-29T00:12:49;8.10;70.30
67820;DHT22;54618;52.018;5.576;2024-03-29T00:15:15;8.10;70.50
67820;DHT22;54618;52.018;5.576;2024-03-29T00:17:40;8.00;70.50
67820;DHT22;54618;52.018;5.576;2024-03-29T00:20:06;8.00;70.60
67820;DHT22;54618;52.018;5.576;2024-03-29T00:22:33;7.90;70.90
67820;DHT22;54618;52.018;5.576;2024-03-29T00:24:59;7.90;70.80
67820;DHT22;54618;52.018;5.576;2024-03-29T00:27:25;7.90;71.00
67820;DHT22;54618;52.018;5.576;2024-03-29T00:29:52;7.90;70.90
67820;DHT22;54618;52.018;5.576;2024-03-29T00:32:22;7.90;70.70
67820;DHT22;54618;52.018;5.576;2024-03-29T00:34:52;8.00;70.70
67820;DHT22;54618;52.018;5.576;2024-03-29T00:37:18;8.00;70.60
67820;DHT22;54618;52.018;5.576;2024-03-29T00:39:44;8.00;70.60
67820;DHT22;54618;52.018;5.576;2024-03-29T00:42:09;8.10;70.80
67820;DHT22;54618;52.018;5.576;2024-03-29T00:44:38;8.10;70.60
67820;DHT22;54618;52.018;5.576;2024-03-29T00:47:04;8.10;70.60
67820;DHT22;54618;52.018;5.576;2024-03-29T00:49:30;8.10;70.40
67820;DHT22;54618;52.018;5.576;2024-03-29T00:51:56;8.10;70.40
67820;DHT22;54618;52.018;5.576;2024-03-29T00:54:22;8.10;70.50
67820;DHT22;54618;52.018;5.576;2024-03-29T00:56:49;8.10;70.50
67820;DHT22;54618;52.018;5.576;2024-03-29T00:59:15;8.10;70.40
67820;DHT22;54618;52.018;5.576;2024-03-29T01:01:41;8.10;70.70
67820;DHT22;54618;52.018;5.576;2024-03-29T01:04:07;8.10;70.70
67820;DHT22;54618;52.018;5.576;2024-03-29T01:06:32;8.10;70.70
67820;DHT22;54618;52.018;5.576;2024-03-29T01:08:59;8.10;71.20
67820;DHT22;54618;52.018;5.576;2024-03-29T01:11:25;8.00;70.70
67820;DHT22;54618;52.018;5.576;2024-03-29T01:13:50;8.00;70.80
67820;DHT22;54618;52.018;5.576;2024-03-29T01:16:16;8.00;71.00
67820;DHT22;54618;52.018;5.576;2024-03-29T01:18:42;7.90;71.60
67820;DHT22;54618;52.018;5.576;2024-03-29T01:21:09;7.90;71.00
67820;DHT22;54618;52.018;5.576;2024-03-29T01:23:34;7.90;71.20
67820;DHT22;54618;52.018;5.576;2024-03-29T01:26:00;7.90;71.00
67820;DHT22;54618;52.018;5.576;2024-03-29T01:28:26;7.90;70.90
67820;DHT22;54618;52.018;5.576;2024-03-29T01:30:53;7.90;71.10
67820;DHT22;54618;52.018;5.576;2024-03-29T01:33:18;7.90;71.00
67820;DHT22;54618;52.018;5.576;2024-03-29T01:35:44;7.90;71.30
67820;DHT22;54618;52.018;5.576;2024-03-29T01:38:10;7.90;71.30
67820;DHT22;54618;52.018;5.576;2024-03-29T01:40:36;7.80;71.30
67820;DHT22;54618;52.018;5.576;2024-03-29T01:43:02;7.80;71.10
67820;DHT22;54618;52.018;5.576;2024-03-29T01:45:29;7.80;71.10
67820;DHT22;54618;52.018;5.576;2024-03-29T01:47:55;7.80;71.20
67820;DHT22;54618;52.018;5.576;2024-03-29T01:50:21;7.70;71.70
67820;DHT22;54618;52.018;5.576;2024-03-29T01:52:47;7.70;71.80
67820;DHT22;54618;52.018;5.576;2024-03-29T01:55:14;7.70;71.80
67820;DHT22;54618;52.018;5.576;2024-03-29T01:57:40;7.70;71.70
67820;DHT22;54618;52.018;5.576;2024-03-29T02:00:07;7.70;71.80
67820;DHT22;54618;52.018;5.576;2024-03-29T02:02:33;7.60;71.90
67820;DHT22;54618;52.018;5.576;2024-03-29T02:04:59;7.60;71.80
67820;DHT22;54618;52.018;5.576;2024-03-29T02:07:25;7.60;72.00
67820;DHT22;54618;52.018;5.576;2024-03-29T02:09:51;7.50;71.80
67820;DHT22;54618;52.018;5.576;2024-03-29T02:12:17;7.50;71.80
67820;DHT22;54618;52.018;5.576;2024-03-29T02:14:43;7.50;72.00
67820;DHT22;54618;52.018;5.576;2024-03-29T02:17:09;7.50;71.90
67820;DHT22;54618;52.018;5.576;2024-03-29T02:19:34;7.50;71.90
67820;DHT22;54618;52.018;5.576;2024-03-29T02:22:00;7.50;72.00
67820;DHT22;54618;52.018;5.576;2024-03-29T02:24:27;7.40;71.80
67820;DHT22;54618;52.018;5.576;2024-03-29T02:26:54;7.50;71.90
67820;DHT22;54618;52.018;5.576;2024-03-29T02:29:21;7.40;72.10
67820;DHT22;54618;52.018;5.576;2024-03-29T02:31:47;7.40;71.80
67820;DHT22;54618;52.018;5.576;2024-03-29T02:34:13;7.50;72.00
67820;DHT22;54618;52.018;5.576;2024-03-29T02:36:38;7.50;71.90
67820;DHT22;54618;52.018;5.576;2024-03-29T02:39:04;7.50;71.80
67820;DHT22;54618;52.018;5.576;2024-03-29T02:41:31;7.60;71.90
67820;DHT22;54618;52.018;5.576;2024-03-29T02:43:57;7.60;71.80
67820;DHT22;54618;52.018;5.576;2024-03-29T02:46:23;7.60;72.10
67820;DHT22;54618;52.018;5.576;2024-03-29T02:48:49;7.60;71.70
67820;DHT22;54618;52.018;5.576;2024-03-29T02:51:15;7.70;71.60
67820;DHT22;54618;52.018;5.576;2024-03-29T02:53:40;7.70;71.60
67820;DHT22;54618;52.018;5.576;2024-03-29T02:56:08;7.70;71.60
67820;DHT22;54618;52.018;5.576;2024-03-29T02:58:37;7.80;71.50
67820;DHT22;54618;52.018;5.576;2024-03-29T03:01:09;7.80;71.50
67820;DHT22;54618;52.018;5.576;2024-03-29T03:03:38;7.80;71.40
67820;DHT22;54618;52.018;5.576;2024-03-29T03:06:04;7.80;71.30
67820;DHT22;54618;52.018;5.576;2024-03-29T03:08:30;7.90;71.70
67820;DHT22;54618;52.018;5.576;2024-03-29T03:11:14;7.90;71.20
67820;DHT22;54618;52.018;5.576;2024-03-29T03:13:40;7.90;71.20
67820;DHT22;54618;52.018;5.576;2024-03-29T03:16:09;7.90;71.20
67820;DHT22;54618;52.018;5.576;2024-03-29T03:18:34;8.00;71.20
67820;DHT22;54618;52.018;5.576;2024-03-29T03:21:00;8.00;71.20
67820;DHT22;54618;52.018;5.576;2024-03-29T03:23:26;8.10;71.30
67820;DHT22;54618;52.018;5.576;2024-03-29T03:26:03;8.10;71.20
67820;DHT22;54618;52.018;5.576;2024-03-29T03:28:33;8.10;71.60
67820;DHT22;54618;52.018;5.576;2024-03-29T03:31:00;8.20;71.20
67820;DHT22;54618;52.018;5.576;2024-03-29T03:33:26;8.20;71.00
67820;DHT22;54618;52.018;5.576;2024-03-29T03:35:52;8.30;70.90
67820;DHT22;54618;52.018;5.576;2024-03-29T03:38:17;8.40;70.80
67820;DHT22;54618;52.018;5.576;2024-03-29T03:40:43;8.40;70.80
67820;DHT22;54618;52.018;5.576;2024-03-29T03:43:09;8.50;70.70
67820;DHT22;54618;52.018;5.576;2024-03-29T03:45:38;8.50;70.60
67820;DHT22;54618;52.018;5.576;2024-03-29T03:48:06;8.60;70.60
67820;DHT22;54618;52.018;5.576;2024-03-29T03:50:32;8.60;70.50
67820;DHT22;54618;52.018;5.576;2024-03-29T03:52:58;8.60;70.40
67820;DHT22;54618;52.018;5.576;2024-03-29T03:55:24;8.70;70.50
67820;DHT22;54618;52.018;5.576;2024-03-29T03:57:50;8.70;70.40
67820;DHT22;54618;52.018;5.576;2024-03-29T04:00:18;8.70;70.40
67820;DHT22;54618;52.018;5.576;2024-03-29T04:02:47;8.70;70.30
67820;DHT22;54618;52.018;5.576;2024-03-29T04:05:14;8.80;70.40
67820;DHT22;54618;52.018;5.576;2024-03-29T04:07:39;8.80;70.50
67820;DHT22;54618;52.018;5.576;2024-03-29T04:10:05;8.80;70.40
67820;DHT22;54618;52.018;5.576;2024-03-29T04:12:33;8.90;70.50
67820;DHT22;54618;52.018;5.576;2024-03-29T04:14:59;8.90;70.50
67820;DHT22;54618;52.018;5.576;2024-03-29T04:17:24;8.90;70.50
67820;DHT22;54618;52.018;5.576;2024-03-29T04:19:50;8.90;70.60
67820;DHT22;54618;52.018;5.576;2024-03-29T04:22:16;8.90;70.80
67820;DHT22;54618;52.018;5.576;2024-03-29T04:24:41;8.90;70.90
67820;DHT22;54618;52.018;5.576;2024-03-29T04:27:07;9.00;70.90
67820;DHT22;54618;52.018;5.576;2024-03-29T04:29:33;9.00;71.10
67820;DHT22;54618;52.018;5.576;2024-03-29T04:31:58;8.90;71.10
67820;DHT22;54618;52.018;5.576;2024-03-29T04:34:24;8.90;71.30
67820;DHT22;54618;52.018;5.576;2024-03-29T04:36:49;8.90;71.90
67820;DHT22;54618;52.018;5.576;2024-03-29T04:39:15;8.90;71.80
67820;DHT22;54618;52.018;5.576;2024-03-29T04:41:40;8.90;71.80
67820;DHT22;54618;52.018;5.576;2024-03-29T04:44:06;8.90;71.70
67820;DHT22;54618;52.018;5.576;2024-03-29T04:46:33;8.90;72.00
67820;DHT22;54618;52.018;5.576;2024-03-29T04:48:59;8.90;71.90
67820;DHT22;54618;52.018;5.576;2024-03-29T04:51:25;8.80;71.90
67820;DHT22;54618;52.018;5.576;2024-03-29T04:53:50;8.80;72.00
67820;DHT22;54618;52.018;5.576;2024-03-29T04:56:16;8.80;72.60
67820;DHT22;54618;52.018;5.576;2024-03-29T04:58:42;8.80;72.60
67820;DHT22;54618;52.018;5.576;2024-03-29T05:01:08;8.70;72.80
67820;DHT22;54618;52.018;5.576;2024-03-29T05:03:33;8.70;72.60
67820;DHT22;54618;52.018;5.576;2024-03-29T05:05:59;8.70;73.30
67820;DHT22;54618;52.018;5.576;2024-03-29T05:08:25;8.70;73.50
67820;DHT22;54618;52.018;5.576;2024-03-29T05:10:51;8.70;73.40
67820;DHT22;54618;52.018;5.576;2024-03-29T05:13:17;8.60;73.10
67820;DHT22;54618;52.018;5.576;2024-03-29T05:15:48;8.60;73.40
67820;DHT22;54618;52.018;5.576;2024-03-29T05:18:13;8.60;73.60
67820;DHT22;54618;52.018;5.576;2024-03-29T05:20:39;8.60;74.00
67820;DHT22;54618;52.018;5.576;2024-03-29T05:23:09;8.50;74.30
67820;DHT22;54618;52.018;5.576;2024-03-29T05:25:34;8.50;73.80
67820;DHT22;54618;52.018;5.576;2024-03-29T05:28:00;8.50;74.20
67820;DHT22;54618;52.018;5.576;2024-03-29T05:30:27;8.50;74.20
67820;DHT22;54618;52.018;5.576;2024-03-29T05:32:54;8.50;74.60
67820;DHT22;54618;52.018;5.576;2024-03-29T05:35:19;8.50;74.60
67820;DHT22;54618;52.018;5.576;2024-03-29T05:37:45;8.50;74.40
67820;DHT22;54618;52.018;5.576;2024-03-29T05:40:14;8.50;74.80
67820;DHT22;54618;52.018;5.576;2024-03-29T05:42:40;8.40;75.60
67820;DHT22;54618;52.018;5.576;2024-03-29T05:45:25;8.40;75.80
67820;DHT22;54618;52.018;5.576;2024-03-29T05:47:55;8.40;75.80
67820;DHT22;54618;52.018;5.576;2024-03-29T05:50:22;8.40;76.60
67820;DHT22;54618;52.018;5.576;2024-03-29T05:52:48;8.40;76.40
67820;DHT22;54618;52.018;5.576;2024-03-29T05:55:13;8.30;76.40
67820;DHT22;54618;52.018;5.576;2024-03-29T05:57:39;8.30;77.60
67820;DHT22;54618;52.018;5.576;2024-03-29T06:00:07;8.30;77.00
67820;DHT22;54618;52.018;5.576;2024-03-29T06:02:36;8.30;76.60
67820;DHT22;54618;52.018;5.576;2024-03-29T06:05:02;8.30;76.80
67820;DHT22;54618;52.018;5.576;2024-03-29T06:07:29;8.30;76.80
67820;DHT22;54618;52.018;5.576;2024-03-29T06:09:56;8.30;76.80
67820;DHT22;54618;52.018;5.576;2024-03-29T06:12:21;8.30;77.40
67820;DHT22;54618;52.018;5.576;2024-03-29T06:14:47;8.40;77.20
67820;DHT22;54618;52.018;5.576;2024-03-29T06:17:31;8.40;76.80
67820;DHT22;54618;52.018;5.576;2024-03-29T06:19:57;8.40;76.80
67820;DHT22;54618;52.018;5.576;2024-03-29T06:22:24;8.40;77.00
67820;DHT22;54618;52.018;5.576;2024-03-29T06:24:53;8.40;76.70
67820;DHT22;54618;52.018;5.576;2024-03-29T06:27:19;8.40;76.70
67820;DHT22;54618;52.018;5.576;2024-03-29T06:29:48;8.50;76.60
67820;DHT22;54618;52.018;5.576;2024-03-29T06:32:14;8.50;77.20
67820;DHT22;54618;52.018;5.576;2024-03-29T06:34:41;8.50;76.80
67820;DHT22;54618;52.018;5.576;2024-03-29T06:37:07;8.50;76.90
67820;DHT22;54618;52.018;5.576;2024-03-29T06:39:33;8.50;76.80
67820;DHT22;54618;52.018;5.576;2024-03-29T06:41:58;8.60;76.70
67820;DHT22;54618;52.018;5.576;2024-03-29T06:44:24;8.60;77.10
67820;DHT22;54618;52.018;5.576;2024-03-29T06:46:50;8.60;77.30
67820;DHT22;54618;52.018;5.576;2024-03-29T06:49:16;8.60;77.90
67820;DHT22;54618;52.018;5.576;2024-03-29T06:51:43;8.60;77.50
67820;DHT22;54618;52.018;5.576;2024-03-29T06:54:09;8.60;77.80
67820;DHT22;54618;52.018;5.576;2024-03-29T06:56:34;8.60;77.60
67820;DHT22;54618;52.018;5.576;2024-03-29T06:59:00;8.60;77.40
67820;DHT22;54618;52.018;5.576;2024-03-29T07:01:26;8.70;77.60
67820;DHT22;54618;52.018;5.576;2024-03-29T07:03:51;8.60;77.70
67820;DHT22;54618;52.018;5.576;2024-03-29T07:06:17;8.70;78.90
67820;DHT22;54618;52.018;5.576;2024-03-29T07:08:43;8.70;79.10
67820;DHT22;54618;52.018;5.576;2024-03-29T07:11:08;8.70;78.80
67820;DHT22;54618;52.018;5.576;2024-03-29T07:13:35;8.60;79.60
67820;DHT22;54618;52.018;5.576;2024-03-29T07:16:01;8.60;79.50
67820;DHT22;54618;52.018;5.576;2024-03-29T07:18:26;8.60;79.20
67820;DHT22;54618;52.018;5.576;2024-03-29T07:20:52;8.60;79.90
67820;DHT22;54618;52.018;5.576;2024-03-29T07:23:18;8.70;79.00
67820;DHT22;54618;52.018;5.576;2024-03-29T07:25:44;8.70;79.40
67820;DHT22;54618;52.018;5.576;2024-03-29T07:28:11;8.70;79.30
67820;DHT22;54618;52.018;5.576;2024-03-29T07:30:43;8.70;80.50
67820;DHT22;54618;52.018;5.576;2024-03-29T07:33:10;8.70;80.00
67820;DHT22;54618;52.018;5.576;2024-03-29T07:35:36;8.70;80.50
67820;DHT22;54618;52.018;5.576;2024-03-29T07:38:03;8.70;80.00
67820;DHT22;54618;52.018;5.576;2024-03-29T07:40:29;8.60;80.40
67820;DHT22;54618;52.018;5.576;2024-03-29T07:42:54;8.60;81.50
67820;DHT22;54618;52.018;5.576;2024-03-29T07:45:21;8.60;81.50
67820;DHT22;54618;52.018;5.576;2024-03-29T07:47:46;8.60;81.10
67820;DHT22;54618;52.018;5.576;2024-03-29T07:50:18;8.60;80.40
67820;DHT22;54618;52.018;5.576;2024-03-29T07:52:45;8.60;80.80
67820;DHT22;54618;52.018;5.576;2024-03-29T07:55:11;8.60;80.20
67820;DHT22;54618;52.018;5.576;2024-03-29T07:57:36;8.70;81.00
67820;DHT22;54618;52.018;5.576;2024-03-29T08:00:03;8.70;80.90
67820;DHT22;54618;52.018;5.576;2024-03-29T08:02:29;8.80;80.70
67820;DHT22;54618;52.018;5.576;2024-03-29T08:04:55;8.90;80.10
67820;DHT22;54618;52.018;5.576;2024-03-29T08:07:21;8.90;80.80
67820;DHT22;54618;52.018;5.576;2024-03-29T08:09:47;9.00;80.40
67820;DHT22;54618;52.018;5.576;2024-03-29T08:12:12;9.10;80.00
67820;DHT22;54618;52.018;5.576;2024-03-29T08:14:38;9.20;80.40
67820;DHT22;54618;52.018;5.576;2024-03-29T08:17:04;9.20;80.10
67820;DHT22;54618;52.018;5.576;2024-03-29T08:19:33;9.30;80.10
67820;DHT22;54618;52.018;5.576;2024-03-29T08:21:59;9.30;79.70
67820;DHT22;54618;52.018;5.576;2024-03-29T08:24:26;9.30;80.30
67820;DHT22;54618;52.018;5.576;2024-03-29T08:26:52;9.40;80.40
67820;DHT22;54618;52.018;5.576;2024-03-29T08:29:18;9.40;80.50
67820;DHT22;54618;52.018;5.576;2024-03-29T08:31:43;9.40;80.90
67820;DHT22;54618;52.018;5.576;2024-03-29T08:34:09;9.40;81.30
67820;DHT22;54618;52.018;5.576;2024-03-29T08:36:39;9.40;81.10
67820;DHT22;54618;52.018;5.576;2024-03-29T08:39:05;9.40;81.10
67820;DHT22;54618;52.018;5.576;2024-03-29T08:41:30;9.50;80.40
67820;DHT22;54618;52.018;5.576;2024-03-29T08:43:56;9.60;80.50
67820;DHT22;54618;52.018;5.576;2024-03-29T08:46:22;9.70;81.60
67820;DHT22;54618;52.018;5.576;2024-03-29T08:48:48;9.90;81.40
67820;DHT22;54618;52.018;5.576;2024-03-29T08:51:13;10.00;81.10
67820;DHT22;54618;52.018;5.576;2024-03-29T08:53:40;10.00;81.60
67820;DHT22;54618;52.018;5.576;2024-03-29T08:56:06;10.00;81.50
67820;DHT22;54618;52.018;5.576;2024-03-29T08:58:32;10.10;81.70
67820;DHT22;54618;52.018;5.576;2024-03-29T09:00:57;10.20;82.40
67820;DHT22;54618;52.018;5.576;2024-03-29T09:03:23;10.40;81.00
67820;DHT22;54618;52.018;5.576;2024-03-29T09:05:50;10.60;80.30
67820;DHT22;54618;52.018;5.576;2024-03-29T09:08:17;10.70;80.10
67820;DHT22;54618;52.018;5.576;2024-03-29T09:10:43;10.80;80.40
67820;DHT22;54618;52.018;5.576;2024-03-29T09:13:09;10.80;81.10
67820;DHT22;54618;52.018;5.576;2024-03-29T09:15:36;10.70;81.00
67820;DHT22;54618;52.018;5.576;2024-03-29T09:18:01;10.70;81.20
67820;DHT22;54618;52.018;5.576;2024-03-29T09:20:35;10.70;81.00
67820;DHT22;54618;52.018;5.576;2024-03-29T09:23:01;10.80;81.20
67820;DHT22;54618;52.018;5.576;2024-03-29T09:25:26;10.90;81.60
67820;DHT22;54618;52.018;5.576;2024-03-29T09:27:52;11.00;80.70
67820;DHT22;54618;52.018;5.576;2024-03-29T09:30:18;11.30;80.20
67820;DHT22;54618;52.018;5.576;2024-03-29T09:32:45;11.50;80.00
67820;DHT22;54618;52.018;5.576;2024-03-29T09:35:10;11.60;79.40
67820;DHT22;54618;52.018;5.576;2024-03-29T09:37:36;11.80;79.10
67820;DHT22;54618;52.018;5.576;2024-03-29T09:40:03;12.10;79.40
67820;DHT22;54618;52.018;5.576;2024-03-29T09:42:32;12.40;78.60
67820;DHT22;54618;52.018;5.576;2024-03-29T09:44:59;12.60;78.10
67820;DHT22;54618;52.018;5.576;2024-03-29T09:47:25;12.70;78.10
67820;DHT22;54618;52.018;5.576;2024-03-29T09:49:53;12.90;78.00
67820;DHT22;54618;52.018;5.576;2024-03-29T09:52:20;13.00;77.70
67820;DHT22;54618;52.018;5.576;2024-03-29T09:54:46;13.10;77.90
67820;DHT22;54618;52.018;5.576;2024-03-29T09:57:12;13.20;78.30
67820;DHT22;54618;52.018;5.576;2024-03-29T09:59:38;13.30;77.90
67820;DHT22;54618;52.018;5.576;2024-03-29T10:02:16;13.40;78.10
67820;DHT22;54618;52.018;5.576;2024-03-29T10:04:44;13.50;77.80
67820;DHT22;54618;52.018;5.576;2024-03-29T10:07:11;13.50;78.00
67820;DHT22;54618;52.018;5.576;2024-03-29T10:09:39;13.50;78.10
67820;DHT22;54618;52.018;5.576;2024-03-29T10:12:06;13.40;78.00
67820;DHT22;54618;52.018;5.576;2024-03-29T10:14:31;13.40;78.40
67820;DHT22;54618;52.018;5.576;2024-03-29T10:16:58;13.50;78.70
67820;DHT22;54618;52.018;5.576;2024-03-29T10:19:23;13.50;78.60
67820;DHT22;54618;52.018;5.576;2024-03-29T10:21:49;13.50;78.50
67820;DHT22;54618;52.018;5.576;2024-03-29T10:24:15;13.80;79.00
67820;DHT22;54618;52.018;5.576;2024-03-29T10:26:42;14.10;78.50
67820;DHT22;54618;52.018;5.576;2024-03-29T10:29:08;14.50;78.10
67820;DHT22;54618;52.018;5.576;2024-03-29T10:31:35;14.90;77.70
67820;DHT22;54618;52.018;5.576;2024-03-29T10:34:05;15.20;76.90
67820;DHT22;54618;52.018;5.576;2024-03-29T10:36:31;15.40;76.50
67820;DHT22;54618;52.018;5.576;2024-03-29T10:39:02;15.60;76.60
67820;DHT22;54618;52.018;5.576;2024-03-29T10:41:39;15.70;76.50
67820;DHT22;54618;52.018;5.576;2024-03-29T10:44:09;15.70;77.20
67820;DHT22;54618;52.018;5.576;2024-03-29T10:46:37;15.90;77.10
67820;DHT22;54618;52.018;5.576;2024-03-29T10:49:07;16.10;77.30
67820;DHT22;54618;52.018;5.576;2024-03-29T10:51:40;16.20;77.00
67820;DHT22;54618;52.018;5.576;2024-03-29T10:54:08;16.40;76.80
67820;DHT22;54618;52.018;5.576;2024-03-29T10:56:35;16.40;76.60
67820;DHT22;54618;52.018;5.576;2024-03-29T11:01:45;16.20;76.50
67820;DHT22;54618;52.018;5.576;2024-03-29T11:04:22;16.10;77.50
67820;DHT22;54618;52.018;5.576;2024-03-29T11:06:51;16.20;77.70
67820;DHT22;54618;52.018;5.576;2024-03-29T11:09:20;16.30;78.80
67820;DHT22;54618;52.018;5.576;2024-03-29T11:11:50;16.50;78.30
67820;DHT22;54618;52.018;5.576;2024-03-29T11:14:20;16.60;77.80
67820;DHT22;54618;52.018;5.576;2024-03-29T11:16:49;16.50;77.30
67820;DHT22;54618;52.018;5.576;2024-03-29T11:19:18;16.60;77.80
67820;DHT22;54618;52.018;5.576;2024-03-29T11:21:44;16.60;77.70
67820;DHT22;54618;52.018;5.576;2024-03-29T11:24:15;16.50;77.10
67820;DHT22;54618;52.018;5.576;2024-03-29T11:26:41;16.30;77.70
67820;DHT22;54618;52.018;5.576;2024-03-29T11:29:22;16.20;78.40
67820;DHT22;54618;52.018;5.576;2024-03-29T11:31:48;16.10;77.10
67820;DHT22;54618;52.018;5.576;2024-03-29T11:34:21;16.10;78.30
67820;DHT22;54618;52.018;5.576;2024-03-29T11:36:47;16.20;77.50
67820;DHT22;54618;52.018;5.576;2024-03-29T11:39:22;16.30;77.80
67820;DHT22;54618;52.018;5.576;2024-03-29T11:41:49;16.30;73.50
67820;DHT22;54618;52.018;5.576;2024-03-29T11:44:15;16.30;77.40
67820;DHT22;54618;52.018;5.576;2024-03-29T11:46:40;16.20;76.90
67820;DHT22;54618;52.018;5.576;2024-03-29T11:49:06;16.10;77.00
67820;DHT22;54618;52.018;5.576;2024-03-29T11:51:32;16.00;77.00
67820;DHT22;54618;52.018;5.576;2024-03-29T11:54:00;16.00;76.70
67820;DHT22;54618;52.018;5.576;2024-03-29T11:56:25;16.10;76.90
67820;DHT22;54618;52.018;5.576;2024-03-29T11:58:51;16.20;76.50
67820;DHT22;54618;52.018;5.576;2024-03-29T12:01:18;16.30;76.20
67820;DHT22;54618;52.018;5.576;2024-03-29T12:03:44;16.40;76.10
67820;DHT22;54618;52.018;5.576;2024-03-29T12:06:10;16.40;75.40
67820;DHT22;54618;52.018;5.576;2024-03-29T12:08:38;16.40;75.10
67820;DHT22;54618;52.018;5.576;2024-03-29T12:11:04;16.40;75.30
67820;DHT22;54618;52.018;5.576;2024-03-29T12:13:30;16.30;75.10
67820;DHT22;54618;52.018;5.576;2024-03-29T12:15:57;16.30;75.00
67820;DHT22;54618;52.018;5.576;2024-03-29T12:18:24;16.20;75.40
67820;DHT22;54618;52.018;5.576;2024-03-29T12:20:51;16.30;74.50
67820;DHT22;54618;52.018;5.576;2024-03-29T12:23:18;16.20;74.70
67820;DHT22;54618;52.018;5.576;2024-03-29T12:25:45;16.20;74.20
67820;DHT22;54618;52.018;5.576;2024-03-29T12:28:12;16.20;73.90
67820;DHT22;54618;52.018;5.576;2024-03-29T12:30:46;16.20;73.50
67820;DHT22;54618;52.018;5.576;2024-03-29T12:35:45;16.30;73.30
67820;DHT22;54618;52.018;5.576;2024-03-29T12:38:14;16.30;73.30
67820;DHT22;54618;52.018;5.576;2024-03-29T12:40:42;16.50;73.70
67820;DHT22;54618;52.018;5.576;2024-03-29T12:43:10;16.50;73.30
67820;DHT22;54618;52.018;5.576;2024-03-29T12:45:36;16.70;73.00
67820;DHT22;54618;52.018;5.576;2024-03-29T12:48:13;16.90;73.00
67820;DHT22;54618;52.018;5.576;2024-03-29T12:50:41;17.00;72.20
67820;DHT22;54618;52.018;5.576;2024-03-29T12:53:08;17.10;72.60
67820;DHT22;54618;52.018;5.576;2024-03-29T12:55:34;17.10;72.40
67820;DHT22;54618;52.018;5.576;2024-03-29T12:58:05;17.20;71.40
67820;DHT22;54618;52.018;5.576;2024-03-29T13:00:34;17.30;71.80
67820;DHT22;54618;52.018;5.576;2024-03-29T13:02:59;17.30;71.30
67820;DHT22;54618;52.018;5.576;2024-03-29T13:05:26;17.30;71.30
67820;DHT22;54618;52.018;5.576;2024-03-29T13:07:53;17.30;70.90
67820;DHT22;54618;52.018;5.576;2024-03-29T13:10:19;17.20;71.00
67820;DHT22;54618;52.018;5.576;2024-03-29T13:12:46;17.20;71.10
67820;DHT22;54618;52.018;5.576;2024-03-29T13:17:41;17.20;71.20
67820;DHT22;54618;52.018;5.576;2024-03-29T13:20:08;17.30;71.10
67820;DHT22;54618;52.018;5.576;2024-03-29T13:22:35;17.40;70.20
67820;DHT22;54618;52.018;5.576;2024-03-29T13:25:01;17.40;70.60
67820;DHT22;54618;52.018;5.576;2024-03-29T13:27:26;17.40;70.30
67820;DHT22;54618;52.018;5.576;2024-03-29T13:29:52;17.60;70.40
67820;DHT22;54618;52.018;5.576;2024-03-29T13:32:18;17.70;69.90
67820;DHT22;54618;52.018;5.576;2024-03-29T13:34:44;17.80;70.10
67820;DHT22;54618;52.018;5.576;2024-03-29T13:37:09;17.90;69.90
67820;DHT22;54618;52.018;5.576;2024-03-29T13:39:35;17.90;69.90
67820;DHT22;54618;52.018;5.576;2024-03-29T13:42:00;18.10;69.90
67820;DHT22;54618;52.018;5.576;2024-03-29T13:44:26;18.20;69.80
67820;DHT22;54618;52.018;5.576;2024-03-29T13:46:52;18.20;69.50
67820;DHT22;54618;52.018;5.576;2024-03-29T13:49:18;18.20;69.10
67820;DHT22;54618;52.018;5.576;2024-03-29T13:51:47;18.10;69.40
67820;DHT22;54618;52.018;5.576;2024-03-29T13:54:12;18.20;69.50
67820;DHT22;54618;52.018;5.576;2024-03-29T13:56:38;18.20;69.60
67820;DHT22;54618;52.018;5.576;2024-03-29T13:59:04;18.20;69.60
67820;DHT22;54618;52.018;5.576;2024-03-29T14:01:30;18.20;68.90
67820;DHT22;54618;52.018;5.576;2024-03-29T14:03:55;18.20;69.10
67820;DHT22;54618;52.018;5.576;2024-03-29T14:06:21;18.00;69.10
67820;DHT22;54618;52.018;5.576;2024-03-29T14:08:47;18.00;69.20
67820;DHT22;54618;52.018;5.576;2024-03-29T14:11:13;18.00;68.70
67820;DHT22;54618;52.018;5.576;2024-03-29T14:13:40;17.90;68.40
67820;DHT22;54618;52.018;5.576;2024-03-29T14:16:05;17.90;68.60
67820;DHT22;54618;52.018;5.576;2024-03-29T14:18:31;17.80;68.90
67820;DHT22;54618;52.018;5.576;2024-03-29T14:20:57;17.70;68.40
67820;DHT22;54618;52.018;5.576;2024-03-29T14:23:23;17.70;68.70
67820;DHT22;54618;52.018;5.576;2024-03-29T14:25:50;17.70;68.70
67820;DHT22;54618;52.018;5.576;2024-03-29T14:28:16;17.80;67.90
67820;DHT22;54618;52.018;5.576;2024-03-29T14:30:42;17.80;67.90
67820;DHT22;54618;52.018;5.576;2024-03-29T14:33:08;17.70;67.80
67820;DHT22;54618;52.018;5.576;2024-03-29T14:35:35;17.70;68.00
67820;DHT22;54618;52.018;5.576;2024-03-29T14:38:00;17.70;68.00
67820;DHT22;54618;52.018;5.576;2024-03-29T14:40:26;17.70;68.20
67820;DHT22;54618;52.018;5.576;2024-03-29T14:42:52;17.70;67.40
67820;DHT22;54618;52.018;5.576;2024-03-29T14:45:19;17.70;66.90
67820;DHT22;54618;52.018;5.576;2024-03-29T14:47:45;17.70;67.10
67820;DHT22;54618;52.018;5.576;2024-03-29T14:50:11;17.70;67.20
67820;DHT22;54618;52.018;5.576;2024-03-29T14:52:39;17.70;66.90
67820;DHT22;54618;52.018;5.576;2024-03-29T14:55:05;17.60;66.60
67820;DHT22;54618;52.018;5.576;2024-03-29T14:57:31;17.60;65.90
67820;DHT22;54618;52.018;5.576;2024-03-29T14:59:58;17.50;66.40
67820;DHT22;54618;52.018;5.576;2024-03-29T15:02:24;17.50;66.60
67820;DHT22;54618;52.018;5.576;2024-03-29T15:04:49;17.40;66.50
67820;DHT22;54618;52.018;5.576;2024-03-29T15:07:15;17.30;66.80
67820;DHT22;54618;52.018;5.576;2024-03-29T15:09:40;17.30;67.10
67820;DHT22;54618;52.018;5.576;2024-03-29T15:12:06;17.30;66.90
67820;DHT22;54618;52.018;5.576;2024-03-29T15:14:34;17.40;66.70
67820;DHT22;54618;52.018;5.576;2024-03-29T15:17:00;17.30;66.50
67820;DHT22;54618;52.018;5.576;2024-03-29T15:19:26;17.20;66.60
67820;DHT22;54618;52.018;5.576;2024-03-29T15:21:52;17.20;66.50
67820;DHT22;54618;52.018;5.576;2024-03-29T15:24:18;17.20;66.40
67820;DHT22;54618;52.018;5.576;2024-03-29T15:26:43;17.10;66.20
67820;DHT22;54618;52.018;5.576;2024-03-29T15:29:09;17.10;66.30
67820;DHT22;54618;52.018;5.576;2024-03-29T15:31:38;17.10;66.40
67820;DHT22;54618;52.018;5.576;2024-03-29T15:34:05;17.10;66.00
67820;DHT22;54618;52.018;5.576;2024-03-29T15:36:32;17.10;66.40
67820;DHT22;54618;52.018;5.576;2024-03-29T15:38:58;17.10;66.50
67820;DHT22;54618;52.018;5.576;2024-03-29T15:41:37;17.10;67.00
67820;DHT22;54618;52.018;5.576;2024-03-29T15:44:05;17.00;66.30